Wawa Airport
CYXZ : rendu visible

Aérodrome :











RETROUVEZ-NOUS SUR...

 
LOGIN :

S'inscrire | Disclaimer

   EN    FR    IT 

 









Légende :    VFR   VFR Marginal   IFR   IFR Intensif   IFR Très Intensif
Visi : 
Plafond : 
>= 8 km
>= 3000ft
5 à 8 km
1000 à 3000 ft
1500m à 5 km
500 à 1000 ft
800 à 1500m
200 à 500 ft
< 800m
< 200 ft
Symboles :   Orages  Brouillard  Fortes neiges  Fortes précipitations  Vent > 20 kt






- Altitude de l'aérodrome : 942 ft
- Code IATA : YXZ


CYXZ - Wawa

DERNIER METAR :
  • 210000Z 24013G25KT 210V280 1 1/2SM -SHSN BLSN OVC015 M07/M10 A3027 RMK SC8 CVCTV CLD EMBD LAST OBS/NEXT 211100 UTC SLP285

METARs EXPIRÉS :
  • 202318Z 25013G26KT 210V290 1 1/2SM -SHSN BLSN BKN018 OVC030 M07/M10 A3028 RMK BLSN2SF3SC3 CVCTV CLD EMBD VIS 3/4 S SLP287
  • 202300Z 25010G23KT 220V280 3SM -SHSN BLSN SCT013 BKN020 OVC038 M07/M09 A3029 RMK SN2SC2SC3SC1 VIS 3/4 S /S06/ CVCTV CLD EMBD SLP289
  • 202231Z 24013G25KT 3SM -SHSN BLSN SCT015 OVC030 M07/M10 A3029 RMK BLSN2SC2SC4 VIS 1 S SLP290
  • 202217Z 24015G26KT 210V280 3/4SM -SHSN BLSN BKN016 BKN030 M07/M09 A3029 RMK SN4SF2SC1 CVCTV CLD EMBD SLP288
  • 202137Z 25010G22KT 220V290 1/4SM -SHSN BLSN VV003 M07/M08 A3031 RMK SN8 SLP295
  • 202127Z CCA 24009G21KT 1/2SM -SHSN BLSN SCT004 OVC015 M07/M09 A3031 RMK SF4SC4 CVCTC CLD EMBD SLP295

Prévision TAF périmée.



MET'MAP, la Météo Aéronautique d'un coup d'oeil ! - Copyright ORBIFLY Décembre 2007 - Disclaimer

ORBIFLY MET'MAP TEAM :

Programmation & Développement : Alexandra Zaïnal
Sur une idée originale de : Baudouin d'Aumeries
Assistance à la programmation : Marc-Olivier Méhu
Soutien technique & logistique : Manuel Goepfert

Contact : metmap@orbifly.com




SOURCES & CREDITS :

   NOAA       Earth
Advisory